SBJU/JDO METAR and TAF weather

Enter ICAO airport designator
Station Type Date Time Source
SBJU METAR 2022/07/03 14:00 UTC NOAA

SBJU 031400Z 15020KT 9999 SCT022 28/18 Q1021


Station Type Date Time Source
SBJU Decoded METAR 2022/07/03 14:00 UTC NOAA

Station name not available
Jul 03, 2022 - 10:00 AM EDT / 2022.07.03 1400 UTC
Wind: from the SSE (150 degrees) at 23 MPH (20 KT):0
Visibility: greater than 7 mile(s):0
Sky conditions: partly cloudy
Temperature: 82 F (28 C)
Dew Point: 64 F (18 C)
Relative Humidity: 54%
Pressure (altimeter): 30.15 in. Hg (1021 hPa)
ob: SBJU 031400Z 15020KT 9999 SCT022 28/18 Q1021
cycle: 14

Station Type Date Time Source
SBJU TAF 2011/11/01 00:05 UTC NOAA

TAF SBJU 012200Z 0200/0212 00000KT 9999 SCT020 TX28/0200Z TN24/0207Z
BECMG 0210/0212 06005KT
RMK PCE

Example: see airport list